sensor_id;sensor_type;location;lat;lon;timestamp;pressure;altitude;pressure_sealevel;temperature;humidity
64211;BME280;50528;48.514;14.394;2023-02-05T00:00:04;95474.16;;;-2.96;67.65
64211;BME280;50528;48.514;14.394;2023-02-05T00:00:39;95475.77;;;-2.97;67.62
64211;BME280;50528;48.514;14.394;2023-02-05T00:01:33;95476.57;;;-3.05;67.67
64211;BME280;50528;48.514;14.394;2023-02-05T00:02:07;95474.36;;;-3.07;67.72
64211;BME280;50528;48.514;14.394;2023-02-05T00:02:45;95476.02;;;-3.08;67.59
64211;BME280;50528;48.514;14.394;2023-02-05T00:03:21;95474.58;;;-3.08;67.70
64211;BME280;50528;48.514;14.394;2023-02-05T00:03:54;95477.61;;;-3.09;67.79
64211;BME280;50528;48.514;14.394;2023-02-05T00:04:28;95473.52;;;-3.09;67.64
64211;BME280;50528;48.514;14.394;2023-02-05T00:05:01;95474.16;;;-3.07;67.69
64211;BME280;50528;48.514;14.394;2023-02-05T00:05:35;95472.98;;;-3.05;67.55
64211;BME280;50528;48.514;14.394;2023-02-05T00:06:08;95469.82;;;-3.06;67.61
64211;BME280;50528;48.514;14.394;2023-02-05T00:06:42;95467.11;;;-3.08;67.63
64211;BME280;50528;48.514;14.394;2023-02-05T00:07:16;95468.06;;;-3.07;67.63
64211;BME280;50528;48.514;14.394;2023-02-05T00:07:50;95467.95;;;-3.08;67.68
64211;BME280;50528;48.514;14.394;2023-02-05T00:08:24;95471.52;;;-3.04;67.88
64211;BME280;50528;48.514;14.394;2023-02-05T00:08:59;95469.73;;;-3.01;67.78
64211;BME280;50528;48.514;14.394;2023-02-05T00:09:33;95469.39;;;-3.03;67.45
64211;BME280;50528;48.514;14.394;2023-02-05T00:10:06;95469.25;;;-3.03;67.49
64211;BME280;50528;48.514;14.394;2023-02-05T00:10:40;95471.71;;;-3.00;67.38
64211;BME280;50528;48.514;14.394;2023-02-05T00:11:13;95472.59;;;-3.00;67.19
64211;BME280;50528;48.514;14.394;2023-02-05T00:11:47;95467.98;;;-3.06;67.22
64211;BME280;50528;48.514;14.394;2023-02-05T00:12:20;95467.04;;;-3.10;67.29
64211;BME280;50528;48.514;14.394;2023-02-05T00:12:54;95472.02;;;-3.06;67.21
64211;BME280;50528;48.514;14.394;2023-02-05T00:13:27;95470.98;;;-3.10;67.38
64211;BME280;50528;48.514;14.394;2023-02-05T00:14:00;95475.95;;;-3.10;67.40
64211;BME280;50528;48.514;14.394;2023-02-05T00:14:34;95475.85;;;-3.08;67.47
64211;BME280;50528;48.514;14.394;2023-02-05T00:15:08;95470.77;;;-3.09;67.54
64211;BME280;50528;48.514;14.394;2023-02-05T00:15:41;95470.83;;;-3.08;67.49
64211;BME280;50528;48.514;14.394;2023-02-05T00:16:17;95470.20;;;-3.06;67.75
64211;BME280;50528;48.514;14.394;2023-02-05T00:16:52;95467.57;;;-3.06;67.79
64211;BME280;50528;48.514;14.394;2023-02-05T00:17:25;95470.80;;;-3.06;67.81
64211;BME280;50528;48.514;14.394;2023-02-05T00:17:59;95471.04;;;-3.04;67.92
64211;BME280;50528;48.514;14.394;2023-02-05T00:18:32;95476.45;;;-3.01;67.91
64211;BME280;50528;48.514;14.394;2023-02-05T00:19:06;95478.23;;;-3.00;67.87
64211;BME280;50528;48.514;14.394;2023-02-05T00:19:39;95475.48;;;-2.98;67.96
64211;BME280;50528;48.514;14.394;2023-02-05T00:20:12;95471.25;;;-2.96;67.85
64211;BME280;50528;48.514;14.394;2023-02-05T00:20:46;95476.98;;;-2.93;68.01
64211;BME280;50528;48.514;14.394;2023-02-05T00:21:20;95477.29;;;-2.91;68.00
64211;BME280;50528;48.514;14.394;2023-02-05T00:21:54;95479.73;;;-2.89;67.91
64211;BME280;50528;48.514;14.394;2023-02-05T00:22:28;95479.43;;;-2.87;68.10
64211;BME280;50528;48.514;14.394;2023-02-05T00:23:02;95480.11;;;-2.85;68.05
64211;BME280;50528;48.514;14.394;2023-02-05T00:23:36;95479.28;;;-2.83;67.94
64211;BME280;50528;48.514;14.394;2023-02-05T00:24:11;95480.05;;;-2.80;67.85
64211;BME280;50528;48.514;14.394;2023-02-05T00:24:44;95480.98;;;-2.81;67.82
64211;BME280;50528;48.514;14.394;2023-02-05T00:25:18;95485.77;;;-2.80;67.88
64211;BME280;50528;48.514;14.394;2023-02-05T00:25:51;95481.92;;;-2.80;67.84
64211;BME280;50528;48.514;14.394;2023-02-05T00:26:25;95479.52;;;-2.80;67.83
64211;BME280;50528;48.514;14.394;2023-02-05T00:27:00;95484.75;;;-2.74;67.58
64211;BME280;50528;48.514;14.394;2023-02-05T00:27:35;95479.27;;;-2.79;67.63
64211;BME280;50528;48.514;14.394;2023-02-05T00:28:09;95483.42;;;-2.75;67.63
64211;BME280;50528;48.514;14.394;2023-02-05T00:28:43;95485.29;;;-2.72;67.41
64211;BME280;50528;48.514;14.394;2023-02-05T00:29:17;95482.09;;;-2.75;67.59
64211;BME280;50528;48.514;14.394;2023-02-05T00:29:50;95482.48;;;-2.74;67.50
64211;BME280;50528;48.514;14.394;2023-02-05T00:30:24;95486.05;;;-2.74;67.46
64211;BME280;50528;48.514;14.394;2023-02-05T00:30:57;95484.91;;;-2.74;67.52
64211;BME280;50528;48.514;14.394;2023-02-05T00:31:31;95485.14;;;-2.73;67.61
64211;BME280;50528;48.514;14.394;2023-02-05T00:32:06;95487.63;;;-2.74;67.59
64211;BME280;50528;48.514;14.394;2023-02-05T00:32:40;95482.29;;;-2.70;67.45
64211;BME280;50528;48.514;14.394;2023-02-05T00:33:13;95487.48;;;-2.64;67.11
64211;BME280;50528;48.514;14.394;2023-02-05T00:33:48;95486.84;;;-2.69;67.35
64211;BME280;50528;48.514;14.394;2023-02-05T00:34:22;95484.26;;;-2.62;67.03
64211;BME280;50528;48.514;14.394;2023-02-05T00:34:55;95480.02;;;-2.69;67.15
64211;BME280;50528;48.514;14.394;2023-02-05T00:35:29;95485.86;;;-2.70;67.32
64211;BME280;50528;48.514;14.394;2023-02-05T00:36:02;95482.69;;;-2.70;67.40
64211;BME280;50528;48.514;14.394;2023-02-05T00:36:36;95489.42;;;-2.71;67.58
64211;BME280;50528;48.514;14.394;2023-02-05T00:37:10;95488.21;;;-2.67;67.41
64211;BME280;50528;48.514;14.394;2023-02-05T00:37:43;95487.64;;;-2.70;67.59
64211;BME280;50528;48.514;14.394;2023-02-05T00:38:17;95485.61;;;-2.64;67.55
64211;BME280;50528;48.514;14.394;2023-02-05T00:38:50;95489.31;;;-2.61;67.36
64211;BME280;50528;48.514;14.394;2023-02-05T00:39:24;95490.70;;;-2.68;67.50
64211;BME280;50528;48.514;14.394;2023-02-05T00:39:57;95492.72;;;-2.67;67.56
64211;BME280;50528;48.514;14.394;2023-02-05T00:40:31;95489.39;;;-2.64;67.61
64211;BME280;50528;48.514;14.394;2023-02-05T00:41:04;95490.83;;;-2.67;67.61
64211;BME280;50528;48.514;14.394;2023-02-05T00:41:38;95492.51;;;-2.67;67.68
64211;BME280;50528;48.514;14.394;2023-02-05T00:42:11;95492.02;;;-2.65;67.75
64211;BME280;50528;48.514;14.394;2023-02-05T00:42:44;95493.27;;;-2.65;67.81
64211;BME280;50528;48.514;14.394;2023-02-05T00:43:18;95495.64;;;-2.63;67.82
64211;BME280;50528;48.514;14.394;2023-02-05T00:43:51;95494.98;;;-2.61;67.81
64211;BME280;50528;48.514;14.394;2023-02-05T00:44:25;95494.11;;;-2.63;67.83
64211;BME280;50528;48.514;14.394;2023-02-05T00:45:02;95495.52;;;-2.64;67.99
64211;BME280;50528;48.514;14.394;2023-02-05T00:45:35;95498.64;;;-2.64;67.87
64211;BME280;50528;48.514;14.394;2023-02-05T00:46:10;95500.92;;;-2.63;67.93
64211;BME280;50528;48.514;14.394;2023-02-05T00:46:44;95500.02;;;-2.62;68.12
64211;BME280;50528;48.514;14.394;2023-02-05T00:47:17;95498.14;;;-2.62;68.14
64211;BME280;50528;48.514;14.394;2023-02-05T00:47:51;95496.47;;;-2.61;68.18
64211;BME280;50528;48.514;14.394;2023-02-05T00:48:24;95498.31;;;-2.56;68.14
64211;BME280;50528;48.514;14.394;2023-02-05T00:48:58;95497.60;;;-2.56;68.05
64211;BME280;50528;48.514;14.394;2023-02-05T00:49:31;95494.23;;;-2.58;68.11
64211;BME280;50528;48.514;14.394;2023-02-05T00:50:05;95495.59;;;-2.56;68.23
64211;BME280;50528;48.514;14.394;2023-02-05T00:50:38;95492.48;;;-2.54;68.09
64211;BME280;50528;48.514;14.394;2023-02-05T00:51:12;95494.25;;;-2.55;68.34
64211;BME280;50528;48.514;14.394;2023-02-05T00:51:46;95495.60;;;-2.57;68.27
64211;BME280;50528;48.514;14.394;2023-02-05T00:52:19;95489.41;;;-2.54;68.40
64211;BME280;50528;48.514;14.394;2023-02-05T00:52:53;95497.58;;;-2.56;68.15
64211;BME280;50528;48.514;14.394;2023-02-05T00:53:27;95493.83;;;-2.54;68.47
64211;BME280;50528;48.514;14.394;2023-02-05T00:54:01;95489.59;;;-2.55;68.42
64211;BME280;50528;48.514;14.394;2023-02-05T00:54:34;95489.06;;;-2.52;68.37
64211;BME280;50528;48.514;14.394;2023-02-05T00:55:07;95489.63;;;-2.55;68.46
64211;BME280;50528;48.514;14.394;2023-02-05T00:55:41;95490.55;;;-2.49;68.54
64211;BME280;50528;48.514;14.394;2023-02-05T00:56:16;95485.81;;;-2.54;68.53
64211;BME280;50528;48.514;14.394;2023-02-05T00:56:49;95485.98;;;-2.50;68.73
64211;BME280;50528;48.514;14.394;2023-02-05T00:57:23;95491.05;;;-2.49;68.72
64211;BME280;50528;48.514;14.394;2023-02-05T00:57:57;95487.30;;;-2.52;68.74
64211;BME280;50528;48.514;14.394;2023-02-05T00:58:30;95484.26;;;-2.52;68.85
64211;BME280;50528;48.514;14.394;2023-02-05T00:59:04;95484.14;;;-2.46;68.88
64211;BME280;50528;48.514;14.394;2023-02-05T00:59:37;95490.16;;;-2.45;68.80
64211;BME280;50528;48.514;14.394;2023-02-05T01:00:11;95492.50;;;-2.46;68.84
64211;BME280;50528;48.514;14.394;2023-02-05T01:00:45;95494.51;;;-2.46;68.96
64211;BME280;50528;48.514;14.394;2023-02-05T01:01:18;95490.60;;;-2.44;68.99
64211;BME280;50528;48.514;14.394;2023-02-05T01:01:52;95490.12;;;-2.42;68.85
64211;BME280;50528;48.514;14.394;2023-02-05T01:02:25;95485.88;;;-2.45;68.98
64211;BME280;50528;48.514;14.394;2023-02-05T01:03:00;95491.23;;;-2.45;68.90
64211;BME280;50528;48.514;14.394;2023-02-05T01:03:34;95489.67;;;-2.45;69.01
64211;BME280;50528;48.514;14.394;2023-02-05T01:04:08;95487.14;;;-2.46;69.12
64211;BME280;50528;48.514;14.394;2023-02-05T01:04:44;95484.10;;;-2.44;68.99
64211;BME280;50528;48.514;14.394;2023-02-05T01:05:19;95485.01;;;-2.41;69.03
64211;BME280;50528;48.514;14.394;2023-02-05T01:05:53;95481.87;;;-2.42;68.90
64211;BME280;50528;48.514;14.394;2023-02-05T01:06:27;95483.56;;;-2.43;69.00
64211;BME280;50528;48.514;14.394;2023-02-05T01:07:01;95482.75;;;-2.42;68.99
64211;BME280;50528;48.514;14.394;2023-02-05T01:07:36;95481.10;;;-2.41;69.13
64211;BME280;50528;48.514;14.394;2023-02-05T01:08:11;95479.52;;;-2.42;68.83
64211;BME280;50528;48.514;14.394;2023-02-05T01:08:46;95476.65;;;-2.43;69.03
64211;BME280;50528;48.514;14.394;2023-02-05T01:09:21;95475.08;;;-2.43;69.03
64211;BME280;50528;48.514;14.394;2023-02-05T01:10:00;95472.46;;;-2.34;68.79
64211;BME280;50528;48.514;14.394;2023-02-05T01:10:34;95470.45;;;-2.35;68.68
64211;BME280;50528;48.514;14.394;2023-02-05T01:11:09;95467.27;;;-2.36;68.63
64211;BME280;50528;48.514;14.394;2023-02-05T01:11:43;95464.30;;;-2.45;68.65
64211;BME280;50528;48.514;14.394;2023-02-05T01:12:16;95468.10;;;-2.47;68.87
64211;BME280;50528;48.514;14.394;2023-02-05T01:12:50;95464.54;;;-2.48;68.98
64211;BME280;50528;48.514;14.394;2023-02-05T01:13:23;95466.52;;;-2.49;68.98
64211;BME280;50528;48.514;14.394;2023-02-05T01:13:57;95461.59;;;-2.52;69.02
64211;BME280;50528;48.514;14.394;2023-02-05T01:14:30;95464.65;;;-2.52;69.00
64211;BME280;50528;48.514;14.394;2023-02-05T01:15:06;95467.67;;;-2.53;69.05
64211;BME280;50528;48.514;14.394;2023-02-05T01:15:39;95465.66;;;-2.54;69.11
64211;BME280;50528;48.514;14.394;2023-02-05T01:16:13;95466.77;;;-2.54;69.13
64211;BME280;50528;48.514;14.394;2023-02-05T01:16:47;95469.98;;;-2.56;69.24
64211;BME280;50528;48.514;14.394;2023-02-05T01:17:20;95467.27;;;-2.56;69.18
64211;BME280;50528;48.514;14.394;2023-02-05T01:17:54;95469.39;;;-2.53;68.79
64211;BME280;50528;48.514;14.394;2023-02-05T01:18:27;95468.32;;;-2.53;68.92
64211;BME280;50528;48.514;14.394;2023-02-05T01:19:01;95467.21;;;-2.54;68.90
64211;BME280;50528;48.514;14.394;2023-02-05T01:19:35;95468.62;;;-2.58;68.98
64211;BME280;50528;48.514;14.394;2023-02-05T01:20:10;95468.33;;;-2.59;68.90
64211;BME280;50528;48.514;14.394;2023-02-05T01:20:44;95463.25;;;-2.61;68.99
64211;BME280;50528;48.514;14.394;2023-02-05T01:21:18;95467.64;;;-2.61;69.09
64211;BME280;50528;48.514;14.394;2023-02-05T01:21:51;95471.33;;;-2.62;68.96
64211;BME280;50528;48.514;14.394;2023-02-05T01:22:25;95470.81;;;-2.64;69.01
64211;BME280;50528;48.514;14.394;2023-02-05T01:22:58;95469.31;;;-2.66;69.15
64211;BME280;50528;48.514;14.394;2023-02-05T01:23:32;95468.03;;;-2.67;69.13
64211;BME280;50528;48.514;14.394;2023-02-05T01:24:05;95464.02;;;-2.67;69.26
64211;BME280;50528;48.514;14.394;2023-02-05T01:24:39;95466.68;;;-2.68;69.11
64211;BME280;50528;48.514;14.394;2023-02-05T01:25:12;95459.23;;;-2.71;69.29
64211;BME280;50528;48.514;14.394;2023-02-05T01:25:46;95463.86;;;-2.71;69.21
64211;BME280;50528;48.514;14.394;2023-02-05T01:26:19;95465.21;;;-2.72;69.16
64211;BME280;50528;48.514;14.394;2023-02-05T01:26:53;95458.03;;;-2.73;69.16
64211;BME280;50528;48.514;14.394;2023-02-05T01:27:28;95458.02;;;-2.75;69.20
64211;BME280;50528;48.514;14.394;2023-02-05T01:28:02;95461.40;;;-2.76;69.13
64211;BME280;50528;48.514;14.394;2023-02-05T01:28:36;95460.73;;;-2.78;69.29
64211;BME280;50528;48.514;14.394;2023-02-05T01:29:09;95461.63;;;-2.79;69.38
64211;BME280;50528;48.514;14.394;2023-02-05T01:29:42;95462.46;;;-2.81;69.29
64211;BME280;50528;48.514;14.394;2023-02-05T01:30:16;95456.86;;;-2.84;69.26
64211;BME280;50528;48.514;14.394;2023-02-05T01:30:50;95462.39;;;-2.80;69.63
64211;BME280;50528;48.514;14.394;2023-02-05T01:31:24;95460.01;;;-2.78;69.69
64211;BME280;50528;48.514;14.394;2023-02-05T01:32:00;95459.33;;;-2.82;69.45
64211;BME280;50528;48.514;14.394;2023-02-05T01:32:34;95463.24;;;-2.82;69.57
64211;BME280;50528;48.514;14.394;2023-02-05T01:33:08;95459.05;;;-2.87;69.64
64211;BME280;50528;48.514;14.394;2023-02-05T01:33:41;95464.46;;;-2.84;69.63
64211;BME280;50528;48.514;14.394;2023-02-05T01:34:15;95466.57;;;-2.85;69.57
64211;BME280;50528;48.514;14.394;2023-02-05T01:34:48;95465.06;;;-2.83;69.66
64211;BME280;50528;48.514;14.394;2023-02-05T01:35:22;95466.55;;;-2.84;69.69
64211;BME280;50528;48.514;14.394;2023-02-05T01:35:55;95462.45;;;-2.85;69.63
64211;BME280;50528;48.514;14.394;2023-02-05T01:36:29;95462.13;;;-2.87;69.68
64211;BME280;50528;48.514;14.394;2023-02-05T01:37:02;95465.41;;;-2.83;69.83
64211;BME280;50528;48.514;14.394;2023-02-05T01:37:36;95471.59;;;-2.81;69.76
64211;BME280;50528;48.514;14.394;2023-02-05T01:38:13;95468.16;;;-2.83;69.47
64211;BME280;50528;48.514;14.394;2023-02-05T01:38:47;95463.55;;;-2.88;69.51
64211;BME280;50528;48.514;14.394;2023-02-05T01:39:20;95460.86;;;-2.88;69.59
64211;BME280;50528;48.514;14.394;2023-02-05T01:39:54;95454.91;;;-2.91;69.67
64211;BME280;50528;48.514;14.394;2023-02-05T01:40:28;95459.56;;;-2.90;69.64
64211;BME280;50528;48.514;14.394;2023-02-05T01:41:02;95456.34;;;-2.86;69.40
64211;BME280;50528;48.514;14.394;2023-02-05T01:41:35;95461.66;;;-2.90;69.46
64211;BME280;50528;48.514;14.394;2023-02-05T01:42:17;95452.10;;;-2.95;69.44
64211;BME280;50528;48.514;14.394;2023-02-05T01:42:50;95452.27;;;-2.97;69.54
64211;BME280;50528;48.514;14.394;2023-02-05T01:43:24;95453.91;;;-2.98;69.73
64211;BME280;50528;48.514;14.394;2023-02-05T01:44:15;95453.34;;;-2.99;69.72
64211;BME280;50528;48.514;14.394;2023-02-05T01:46:25;95459.24;;;-3.05;69.62
64211;BME280;50528;48.514;14.394;2023-02-05T01:47:01;95457.83;;;-3.10;69.83
64211;BME280;50528;48.514;14.394;2023-02-05T01:47:34;95460.14;;;-3.11;69.88
64211;BME280;50528;48.514;14.394;2023-02-05T01:48:08;95458.44;;;-3.11;69.94
64211;BME280;50528;48.514;14.394;2023-02-05T01:48:50;95458.09;;;-3.11;70.12
64211;BME280;50528;48.514;14.394;2023-02-05T01:49:29;95457.98;;;-3.10;70.06
64211;BME280;50528;48.514;14.394;2023-02-05T01:50:04;95456.09;;;-3.10;70.09
64211;BME280;50528;48.514;14.394;2023-02-05T01:50:43;95459.25;;;-3.09;70.26
64211;BME280;50528;48.514;14.394;2023-02-05T01:51:19;95454.73;;;-3.08;70.29
64211;BME280;50528;48.514;14.394;2023-02-05T01:51:55;95457.77;;;-3.08;70.22
64211;BME280;50528;48.514;14.394;2023-02-05T01:52:30;95456.65;;;-3.04;70.10
64211;BME280;50528;48.514;14.394;2023-02-05T01:53:09;95454.25;;;-3.07;70.33
64211;BME280;50528;48.514;14.394;2023-02-05T01:53:45;95459.91;;;-3.07;70.24
64211;BME280;50528;48.514;14.394;2023-02-05T01:54:22;95455.91;;;-3.08;70.43
64211;BME280;50528;48.514;14.394;2023-02-05T01:54:57;95451.59;;;-3.09;70.52
64211;BME280;50528;48.514;14.394;2023-02-05T01:55:31;95453.31;;;-3.07;70.38
64211;BME280;50528;48.514;14.394;2023-02-05T01:56:08;95453.69;;;-3.04;70.49
64211;BME280;50528;48.514;14.394;2023-02-05T01:56:58;95451.67;;;-3.04;70.45
64211;BME280;50528;48.514;14.394;2023-02-05T01:57:34;95453.69;;;-3.08;70.47
64211;BME280;50528;48.514;14.394;2023-02-05T01:58:08;95453.80;;;-3.12;70.38
64211;BME280;50528;48.514;14.394;2023-02-05T01:58:48;95458.22;;;-3.11;70.49
64211;BME280;50528;48.514;14.394;2023-02-05T01:59:27;95454.52;;;-3.10;70.54
64211;BME280;50528;48.514;14.394;2023-02-05T02:00:04;95456.33;;;-3.13;70.51
64211;BME280;50528;48.514;14.394;2023-02-05T02:00:46;95456.54;;;-3.13;70.53
64211;BME280;50528;48.514;14.394;2023-02-05T02:01:20;95459.50;;;-3.10;70.64
64211;BME280;50528;48.514;14.394;2023-02-05T02:01:53;95460.61;;;-3.11;70.73
64211;BME280;50528;48.514;14.394;2023-02-05T02:02:29;95455.58;;;-3.10;70.57
64211;BME280;50528;48.514;14.394;2023-02-05T02:03:04;95456.60;;;-3.12;70.58
64211;BME280;50528;48.514;14.394;2023-02-05T02:03:38;95458.23;;;-3.11;70.52
64211;BME280;50528;48.514;14.394;2023-02-05T02:04:22;95455.43;;;-3.14;70.52
64211;BME280;50528;48.514;14.394;2023-02-05T02:05:06;95460.33;;;-3.13;70.68
64211;BME280;50528;48.514;14.394;2023-02-05T02:05:41;95459.04;;;-3.12;70.71
64211;BME280;50528;48.514;14.394;2023-02-05T02:06:15;95458.65;;;-3.10;70.53
64211;BME280;50528;48.514;14.394;2023-02-05T02:06:48;95462.61;;;-3.12;70.71
64211;BME280;50528;48.514;14.394;2023-02-05T02:07:23;95461.70;;;-3.09;70.72
64211;BME280;50528;48.514;14.394;2023-02-05T02:07:57;95462.52;;;-3.11;70.74
64211;BME280;50528;48.514;14.394;2023-02-05T02:08:30;95460.52;;;-3.12;70.75
64211;BME280;50528;48.514;14.394;2023-02-05T02:09:06;95462.76;;;-3.11;70.47
64211;BME280;50528;48.514;14.394;2023-02-05T02:09:41;95462.24;;;-3.10;70.56
64211;BME280;50528;48.514;14.394;2023-02-05T02:10:17;95457.20;;;-3.11;70.45
64211;BME280;50528;48.514;14.394;2023-02-05T02:10:52;95457.92;;;-3.13;70.65
64211;BME280;50528;48.514;14.394;2023-02-05T02:11:29;95462.55;;;-3.16;70.67
64211;BME280;50528;48.514;14.394;2023-02-05T02:12:04;95459.12;;;-3.18;70.73
64211;BME280;50528;48.514;14.394;2023-02-05T02:12:41;95465.56;;;-3.19;70.73
64211;BME280;50528;48.514;14.394;2023-02-05T02:13:17;95460.19;;;-3.16;70.90
64211;BME280;50528;48.514;14.394;2023-02-05T02:13:53;95463.63;;;-3.16;70.83
64211;BME280;50528;48.514;14.394;2023-02-05T02:14:30;95468.18;;;-3.17;70.77
64211;BME280;50528;48.514;14.394;2023-02-05T02:15:09;95471.38;;;-3.19;70.85
64211;BME280;50528;48.514;14.394;2023-02-05T02:15:44;95470.00;;;-3.17;70.73
64211;BME280;50528;48.514;14.394;2023-02-05T02:16:18;95469.89;;;-3.13;70.78
64211;BME280;50528;48.514;14.394;2023-02-05T02:16:53;95470.52;;;-3.15;70.67
64211;BME280;50528;48.514;14.394;2023-02-05T02:17:29;95475.48;;;-3.14;70.53
64211;BME280;50528;48.514;14.394;2023-02-05T02:18:04;95474.56;;;-3.16;70.81
64211;BME280;50528;48.514;14.394;2023-02-05T02:18:58;95468.02;;;-3.17;70.77
64211;BME280;50528;48.514;14.394;2023-02-05T02:20:33;95480.73;;;-3.20;70.78
64211;BME280;50528;48.514;14.394;2023-02-05T02:22:23;95479.60;;;-3.23;70.78
64211;BME280;50528;48.514;14.394;2023-02-05T02:23:15;95480.00;;;-3.23;70.85
64211;BME280;50528;48.514;14.394;2023-02-05T02:25:47;95473.80;;;-3.25;71.15
64211;BME280;50528;48.514;14.394;2023-02-05T02:27:10;95475.23;;;-3.30;70.90
64211;BME280;50528;48.514;14.394;2023-02-05T02:28:28;95472.61;;;-3.36;71.23
64211;BME280;50528;48.514;14.394;2023-02-05T02:29:03;95466.84;;;-3.39;71.19
64211;BME280;50528;48.514;14.394;2023-02-05T02:30:07;95469.35;;;-3.34;71.19
64211;BME280;50528;48.514;14.394;2023-02-05T02:30:45;95472.67;;;-3.35;71.47
64211;BME280;50528;48.514;14.394;2023-02-05T02:32:15;95476.86;;;-3.27;71.42
64211;BME280;50528;48.514;14.394;2023-02-05T02:33:13;95475.48;;;-3.27;71.29
64211;BME280;50528;48.514;14.394;2023-02-05T02:34:48;95478.98;;;-3.30;71.28
64211;BME280;50528;48.514;14.394;2023-02-05T02:35:27;95477.60;;;-3.30;71.72
64211;BME280;50528;48.514;14.394;2023-02-05T02:36:11;95479.36;;;-3.26;71.55
64211;BME280;50528;48.514;14.394;2023-02-05T02:36:57;95483.66;;;-3.24;71.46
64211;BME280;50528;48.514;14.394;2023-02-05T02:37:38;95473.73;;;-3.29;71.40
64211;BME280;50528;48.514;14.394;2023-02-05T02:38:25;95483.20;;;-3.25;71.37
64211;BME280;50528;48.514;14.394;2023-02-05T02:39:15;95482.71;;;-3.23;71.64
64211;BME280;50528;48.514;14.394;2023-02-05T02:39:58;95482.88;;;-3.19;71.15
64211;BME280;50528;48.514;14.394;2023-02-05T02:40:43;95487.95;;;-3.22;71.36
64211;BME280;50528;48.514;14.394;2023-02-05T02:41:33;95485.23;;;-3.23;71.38
64211;BME280;50528;48.514;14.394;2023-02-05T02:42:21;95485.36;;;-3.22;71.48
64211;BME280;50528;48.514;14.394;2023-02-05T02:43:55;95486.96;;;-3.24;71.49
64211;BME280;50528;48.514;14.394;2023-02-05T02:44:39;95488.92;;;-3.19;71.29
64211;BME280;50528;48.514;14.394;2023-02-05T02:45:16;95484.78;;;-3.19;71.10
64211;BME280;50528;48.514;14.394;2023-02-05T02:45:57;95487.27;;;-3.12;70.85
64211;BME280;50528;48.514;14.394;2023-02-05T02:46:46;95489.39;;;-3.19;71.08
64211;BME280;50528;48.514;14.394;2023-02-05T02:47:25;95492.05;;;-3.24;71.22
64211;BME280;50528;48.514;14.394;2023-02-05T02:48:02;95489.05;;;-3.27;71.25
64211;BME280;50528;48.514;14.394;2023-02-05T02:48:39;95491.21;;;-3.20;71.08
64211;BME280;50528;48.514;14.394;2023-02-05T02:50:43;95492.07;;;-3.24;70.81
64211;BME280;50528;48.514;14.394;2023-02-05T02:51:19;95488.31;;;-3.29;71.02
64211;BME280;50528;48.514;14.394;2023-02-05T02:51:54;95487.70;;;-3.25;70.79
64211;BME280;50528;48.514;14.394;2023-02-05T02:52:34;95485.67;;;-3.28;70.96
64211;BME280;50528;48.514;14.394;2023-02-05T02:53:14;95483.83;;;-3.26;71.03
64211;BME280;50528;48.514;14.394;2023-02-05T02:53:52;95484.73;;;-3.24;71.06
64211;BME280;50528;48.514;14.394;2023-02-05T02:54:28;95480.92;;;-3.22;71.02
64211;BME280;50528;48.514;14.394;2023-02-05T02:55:06;95479.42;;;-3.21;71.07
64211;BME280;50528;48.514;14.394;2023-02-05T02:55:44;95478.17;;;-3.18;70.90
64211;BME280;50528;48.514;14.394;2023-02-05T02:56:23;95478.86;;;-3.16;70.99
64211;BME280;50528;48.514;14.394;2023-02-05T02:56:57;95479.27;;;-3.17;70.86
64211;BME280;50528;48.514;14.394;2023-02-05T02:57:32;95478.05;;;-3.16;70.99
64211;BME280;50528;48.514;14.394;2023-02-05T02:58:14;95475.92;;;-3.16;71.07
64211;BME280;50528;48.514;14.394;2023-02-05T02:58:49;95476.46;;;-3.14;71.10
64211;BME280;50528;48.514;14.394;2023-02-05T02:59:25;95474.76;;;-3.16;70.96
64211;BME280;50528;48.514;14.394;2023-02-05T03:00:04;95476.25;;;-3.15;70.95
64211;BME280;50528;48.514;14.394;2023-02-05T03:00:43;95474.66;;;-3.15;70.99
64211;BME280;50528;48.514;14.394;2023-02-05T03:01:20;95476.67;;;-3.10;70.94
64211;BME280;50528;48.514;14.394;2023-02-05T03:01:58;95469.30;;;-3.10;70.89
64211;BME280;50528;48.514;14.394;2023-02-05T03:02:34;95474.35;;;-3.11;70.78
64211;BME280;50528;48.514;14.394;2023-02-05T03:03:10;95474.50;;;-3.09;70.65
64211;BME280;50528;48.514;14.394;2023-02-05T03:03:52;95478.59;;;-3.06;70.55
64211;BME280;50528;48.514;14.394;2023-02-05T03:04:33;95480.60;;;-3.08;70.75
64211;BME280;50528;48.514;14.394;2023-02-05T03:05:13;95479.17;;;-3.07;70.89
64211;BME280;50528;48.514;14.394;2023-02-05T03:05:48;95483.02;;;-3.06;70.86
64211;BME280;50528;48.514;14.394;2023-02-05T03:06:23;95478.54;;;-3.01;70.67
64211;BME280;50528;48.514;14.394;2023-02-05T03:07:04;95479.55;;;-3.01;70.51
64211;BME280;50528;48.514;14.394;2023-02-05T03:07:45;95479.02;;;-3.05;70.57
64211;BME280;50528;48.514;14.394;2023-02-05T03:08:41;95480.67;;;-3.07;70.69
64211;BME280;50528;48.514;14.394;2023-02-05T03:09:38;95476.13;;;-3.08;70.57
64211;BME280;50528;48.514;14.394;2023-02-05T03:10:25;95479.67;;;-3.11;70.53
64211;BME280;50528;48.514;14.394;2023-02-05T03:11:07;95470.95;;;-3.15;70.73
64211;BME280;50528;48.514;14.394;2023-02-05T03:11:43;95477.06;;;-3.13;70.61
64211;BME280;50528;48.514;14.394;2023-02-05T03:12:17;95476.63;;;-3.12;70.53
64211;BME280;50528;48.514;14.394;2023-02-05T03:12:53;95475.97;;;-3.12;70.53
64211;BME280;50528;48.514;14.394;2023-02-05T03:13:28;95478.40;;;-3.10;70.50
64211;BME280;50528;48.514;14.394;2023-02-05T03:14:04;95471.92;;;-3.08;70.43
64211;BME280;50528;48.514;14.394;2023-02-05T03:14:39;95471.90;;;-3.08;70.24
64211;BME280;50528;48.514;14.394;2023-02-05T03:15:13;95476.15;;;-3.08;70.22
64211;BME280;50528;48.514;14.394;2023-02-05T03:15:47;95474.38;;;-3.09;70.23
64211;BME280;50528;48.514;14.394;2023-02-05T03:16:21;95472.02;;;-3.10;70.17
64211;BME280;50528;48.514;14.394;2023-02-05T03:16:57;95472.95;;;-3.11;70.27
64211;BME280;50528;48.514;14.394;2023-02-05T03:17:32;95472.60;;;-3.11;70.36
64211;BME280;50528;48.514;14.394;2023-02-05T03:18:06;95472.58;;;-3.08;70.00
64211;BME280;50528;48.514;14.394;2023-02-05T03:18:40;95470.66;;;-3.10;69.88
64211;BME280;50528;48.514;14.394;2023-02-05T03:19:14;95470.09;;;-3.13;69.92